Allenville, Missouri
Current Conditions -  °F | °C
As of 2:53 AM on Sunday 26 Oct 2014 (Local Time) from KCGI Reporting Station
Moderate Fog Moderate Fog  
Wind Chill: 12°   Ceiling: Unl
Heat Index: 12°   Visibility: 0.25mi
Dew Point: 12°   Wind: 0mph
Humidity: 97%   Direction: NA
Pressure: 30.01"   Gusts: NA
Location:  37.1651°N, 89.623°W
Report Text: KCGI 260753Z AUTO 00000KT 1/4SM FG CLR 12/12 A3001 RMK AO2 SLP159 T01220117 TSNO
Loading
Personal Weather Stations






























Interactive Weather Map
Tropical Storm Tracking
New forecast layout! Learn more

10-Day Weather Forecast

Advertisements
Track Severe Weather on mobile